createdAt,value
2019-06-15T00:00:35.096Z,37.29
2019-06-15T00:03:03.636Z,37.11
2019-06-15T00:05:32.254Z,37.20
2019-06-15T00:08:00.654Z,37.24
2019-06-15T00:10:29.105Z,37.32
2019-06-15T00:12:57.515Z,37.33
2019-06-15T00:15:25.978Z,37.38
2019-06-15T00:17:54.510Z,37.39
2019-06-15T00:20:22.917Z,37.47
2019-06-15T00:22:51.324Z,37.65
2019-06-15T00:25:19.746Z,37.82
2019-06-15T00:27:48.215Z,37.78
2019-06-15T00:30:17.060Z,37.95
2019-06-15T00:32:45.486Z,38.13
2019-06-15T00:35:14.259Z,38.30
2019-06-15T00:37:42.656Z,37.98
2019-06-15T00:40:12.663Z,37.93
2019-06-15T00:42:41.078Z,38.03
2019-06-15T00:45:09.689Z,37.79
2019-06-15T00:47:38.134Z,37.74
2019-06-15T00:50:07.180Z,37.72
2019-06-15T00:52:35.584Z,37.70
2019-06-15T00:55:05.648Z,38.04
2019-06-15T00:57:34.800Z,38.24
2019-06-15T01:00:04.806Z,38.29
2019-06-15T01:02:33.263Z,38.23
2019-06-15T01:05:01.919Z,38.33
2019-06-15T01:07:30.319Z,38.48
2019-06-15T01:09:58.875Z,38.53
2019-06-15T01:12:27.397Z,38.59
2019-06-15T01:14:55.864Z,38.75
2019-06-15T01:17:24.363Z,38.79
2019-06-15T01:19:52.768Z,38.75
2019-06-15T01:22:21.157Z,38.75
2019-06-15T01:24:49.630Z,38.62
2019-06-15T01:27:18.019Z,38.58
2019-06-15T01:29:46.885Z,38.56
2019-06-15T01:32:15.305Z,38.36
2019-06-15T01:34:43.711Z,38.09
2019-06-15T01:37:12.111Z,37.96
2019-06-15T01:39:40.576Z,37.77
2019-06-15T01:42:08.982Z,37.61
2019-06-15T01:44:37.454Z,37.60
2019-06-15T01:47:05.970Z,37.43
2019-06-15T01:49:34.359Z,37.14
2019-06-15T01:52:02.845Z,36.96
2019-06-15T01:54:31.267Z,36.86
2019-06-15T01:56:59.732Z,36.93
2019-06-15T01:59:28.177Z,36.96
2019-06-15T02:01:56.750Z,36.99
2019-06-15T02:04:25.175Z,36.87
2019-06-15T02:06:53.627Z,36.86
2019-06-15T02:09:22.194Z,37.01
2019-06-15T02:11:50.597Z,37.05
2019-06-15T02:14:18.993Z,37.31
2019-06-15T02:16:47.419Z,37.55
2019-06-15T02:19:15.814Z,37.65
2019-06-15T02:21:44.215Z,37.73
2019-06-15T02:24:12.771Z,37.78
2019-06-15T02:26:41.152Z,37.76
2019-06-15T02:29:09.554Z,37.80
2019-06-15T02:31:38.192Z,37.77
2019-06-15T02:34:06.592Z,37.81
2019-06-15T02:36:35.065Z,37.64
2019-06-15T02:39:04.932Z,37.63
2019-06-15T02:41:33.335Z,37.63
2019-06-15T02:44:01.874Z,37.66
2019-06-15T02:46:30.315Z,37.56
2019-06-15T02:48:58.776Z,37.47
2019-06-15T02:51:27.337Z,37.45
2019-06-15T02:53:55.848Z,37.56
2019-06-15T02:56:24.270Z,37.60
2019-06-15T02:58:52.644Z,37.58
2019-06-15T03:01:21.113Z,37.37
2019-06-15T03:03:49.511Z,37.21
2019-06-15T03:06:17.982Z,37.19
2019-06-15T03:08:46.832Z,37.18
2019-06-15T03:11:15.222Z,37.04
2019-06-15T03:13:45.142Z,37.12
2019-06-15T03:16:13.701Z,37.14
2019-06-15T03:18:42.100Z,37.28
2019-06-15T03:21:10.507Z,37.33
2019-06-15T03:23:39.005Z,37.27
2019-06-15T03:26:07.470Z,37.34
2019-06-15T03:28:35.869Z,37.44
2019-06-15T03:31:04.498Z,37.50
2019-06-15T03:33:32.893Z,37.62
2019-06-15T03:36:01.320Z,37.69
2019-06-15T03:38:29.930Z,37.88
2019-06-15T03:40:58.401Z,38.02
2019-06-15T03:43:26.801Z,37.97
2019-06-15T03:45:55.220Z,37.88
2019-06-15T03:48:23.617Z,37.97
2019-06-15T03:50:52.016Z,38.04
2019-06-15T03:53:20.457Z,38.16
2019-06-15T03:55:48.862Z,38.30
2019-06-15T03:58:17.316Z,38.32
2019-06-15T04:00:48.121Z,38.39
2019-06-15T04:03:16.666Z,38.49
2019-06-15T04:05:45.418Z,38.56
2019-06-15T04:08:13.925Z,38.59
2019-06-15T04:10:42.324Z,38.72
2019-06-15T04:13:10.738Z,38.81
2019-06-15T04:15:39.297Z,38.89
2019-06-15T04:18:07.771Z,38.99
2019-06-15T04:20:36.171Z,39.15
2019-06-15T04:23:05.049Z,39.37
2019-06-15T04:25:33.513Z,39.53
2019-06-15T04:28:01.912Z,39.56
2019-06-15T04:30:30.337Z,39.60
2019-06-15T04:32:58.819Z,39.74
2019-06-15T04:35:27.226Z,39.94
2019-06-15T04:37:55.660Z,39.96
2019-06-15T04:40:24.158Z,39.98
2019-06-15T04:42:52.552Z,39.94
2019-06-15T04:45:21.145Z,39.94
2019-06-15T04:47:49.553Z,40.11
2019-06-15T04:50:18.013Z,40.25
2019-06-15T04:52:46.524Z,40.23
2019-06-15T04:55:14.934Z,40.16
2019-06-15T04:57:43.335Z,40.16
2019-06-15T05:00:12.342Z,39.96
2019-06-15T05:02:41.088Z,39.86
2019-06-15T05:05:09.551Z,39.72
2019-06-15T05:07:37.981Z,39.53
2019-06-15T05:10:06.984Z,39.50
2019-06-15T05:12:35.760Z,39.40
2019-06-15T05:15:05.788Z,39.51
2019-06-15T05:17:34.326Z,39.85
2019-06-15T05:20:03.014Z,40.15
2019-06-15T05:22:31.436Z,40.23
2019-06-15T05:24:59.856Z,40.60
2019-06-15T05:27:28.233Z,40.64
2019-06-15T05:29:56.775Z,40.73
2019-06-15T05:32:25.378Z,40.80
2019-06-15T05:34:53.777Z,40.67
2019-06-15T05:37:22.312Z,40.60
2019-06-15T05:39:50.710Z,40.80
2019-06-15T05:42:19.113Z,41.15
2019-06-15T05:44:47.650Z,41.54
2019-06-15T05:47:16.065Z,41.77
2019-06-15T05:49:44.467Z,41.73
2019-06-15T05:52:12.893Z,41.59
2019-06-15T05:54:41.289Z,41.54
2019-06-15T05:57:21.253Z,41.45
2019-06-15T05:59:39.850Z,41.33
2019-06-15T06:02:08.325Z,41.54
2019-06-15T06:04:36.725Z,41.51
2019-06-15T06:07:05.339Z,41.58
2019-06-15T06:09:33.808Z,41.40
2019-06-15T06:12:02.351Z,41.32
2019-06-15T06:14:30.887Z,41.32
2019-06-15T06:16:59.418Z,41.42
2019-06-15T06:19:27.776Z,41.71
2019-06-15T06:21:58.323Z,41.61
2019-06-15T06:24:26.546Z,41.20
2019-06-15T06:26:54.945Z,41.31
2019-06-15T06:29:23.364Z,41.28
2019-06-15T06:31:51.823Z,40.67
2019-06-15T06:34:20.254Z,40.20
2019-06-15T06:36:48.851Z,40.10
2019-06-15T06:39:17.271Z,39.93
2019-06-15T06:41:45.652Z,39.67
2019-06-15T06:44:14.199Z,39.56
2019-06-15T06:46:42.606Z,39.92
2019-06-15T06:49:11.007Z,39.13
2019-06-15T06:51:39.505Z,39.78
2019-06-15T06:54:07.915Z,39.70
2019-06-15T06:56:36.326Z,40.27
2019-06-15T06:59:04.746Z,40.30
2019-06-15T07:01:33.179Z,40.32
2019-06-15T07:04:01.795Z,40.62
2019-06-15T07:06:30.492Z,41.10
2019-06-15T07:08:58.902Z,40.57
2019-06-15T07:11:27.307Z,40.63
2019-06-15T07:13:55.735Z,40.18
2019-06-15T07:16:24.131Z,39.81
2019-06-15T07:18:52.534Z,39.90
2019-06-15T07:21:20.980Z,40.20
2019-06-15T07:23:49.372Z,40.34
2019-06-15T07:26:17.791Z,40.43
2019-06-15T07:28:46.212Z,40.20
2019-06-15T07:31:14.685Z,40.72
2019-06-15T07:33:43.187Z,40.72
2019-06-15T07:36:11.615Z,40.73
2019-06-15T07:38:40.062Z,40.93
2019-06-15T07:41:08.440Z,40.91
2019-06-15T07:43:36.997Z,41.12
2019-06-15T07:46:05.408Z,41.25
2019-06-15T07:48:33.814Z,41.26
2019-06-15T07:51:02.254Z,41.42
2019-06-15T07:53:30.651Z,41.05
2019-06-15T07:55:59.120Z,41.34
2019-06-15T07:58:27.559Z,41.21
2019-06-15T08:00:55.958Z,41.65
2019-06-15T08:03:24.359Z,41.44
2019-06-15T08:05:52.793Z,41.66
2019-06-15T08:08:21.197Z,41.64
2019-06-15T08:10:49.598Z,41.72
2019-06-15T08:13:18.718Z,41.08
2019-06-15T08:15:47.291Z,41.03
2019-06-15T08:18:15.632Z,41.33
2019-06-15T08:20:44.318Z,41.11
2019-06-15T08:23:12.720Z,40.80
2019-06-15T08:25:41.123Z,40.78
2019-06-15T08:28:09.632Z,40.31
2019-06-15T08:31:04.537Z,40.65
2019-06-15T08:33:33.236Z,40.52
2019-06-15T08:36:02.472Z,40.64
2019-06-15T08:38:31.024Z,39.86
2019-06-15T08:40:59.457Z,39.86
2019-06-15T08:43:27.862Z,39.50
2019-06-15T08:45:56.271Z,39.44
2019-06-15T08:48:24.735Z,39.71
2019-06-15T08:50:53.153Z,39.94
2019-06-15T08:53:21.574Z,39.94
2019-06-15T08:55:49.982Z,40.55
2019-06-15T08:58:18.385Z,39.31
2019-06-15T09:00:46.800Z,38.94
2019-06-15T09:03:15.324Z,38.94
2019-06-15T09:05:43.720Z,39.26
2019-06-15T09:08:12.112Z,38.16
2019-06-15T09:10:40.528Z,38.19
2019-06-15T09:13:08.931Z,38.66
2019-06-15T09:15:46.676Z,38.24
2019-06-15T09:18:15.099Z,37.02
2019-06-15T09:20:43.493Z,37.08
2019-06-15T09:23:11.929Z,36.08
2019-06-15T09:25:40.412Z,35.75
2019-06-15T09:28:08.819Z,35.88
2019-06-15T09:30:37.260Z,36.19
2019-06-15T09:33:05.717Z,35.97
2019-06-15T09:35:34.145Z,36.75
2019-06-15T09:38:02.622Z,37.42
2019-06-15T09:40:31.358Z,36.07
2019-06-15T09:42:59.756Z,35.87
2019-06-15T09:45:28.181Z,35.89
2019-06-15T09:47:56.646Z,35.89
2019-06-15T09:50:25.044Z,35.52
2019-06-15T09:52:53.472Z,35.52
2019-06-15T09:55:21.942Z,35.37
2019-06-15T09:57:50.338Z,35.73
2019-06-15T10:00:19.096Z,34.99
2019-06-15T10:02:47.518Z,35.47
2019-06-15T10:05:16.073Z,34.88
2019-06-15T10:07:44.624Z,35.43
2019-06-15T10:10:14.561Z,35.82
2019-06-15T10:12:42.959Z,35.84
2019-06-15T10:15:12.114Z,34.93
2019-06-15T10:17:40.514Z,35.43
2019-06-15T10:20:09.548Z,35.08
2019-06-15T10:22:38.201Z,35.26
2019-06-15T10:25:08.180Z,34.20
2019-06-15T10:27:36.685Z,34.99
2019-06-15T10:30:09.651Z,35.31
2019-06-15T10:32:38.057Z,34.53
2019-06-15T10:35:06.794Z,33.79
2019-06-15T10:37:35.221Z,34.07
2019-06-15T10:40:05.863Z,33.79
2019-06-15T10:42:34.296Z,34.96
2019-06-15T10:45:03.128Z,33.49
2019-06-15T10:47:31.559Z,32.94
2019-06-15T10:49:59.912Z,32.82
2019-06-15T10:52:28.653Z,33.95
2019-06-15T10:54:57.112Z,34.29
2019-06-15T10:57:25.531Z,33.96
2019-06-15T10:59:57.670Z,33.44
2019-06-15T11:02:24.139Z,33.80
2019-06-15T11:04:52.608Z,32.78
2019-06-15T11:07:21.032Z,32.33
2019-06-15T11:09:49.429Z,32.44
2019-06-15T11:12:17.830Z,33.91
2019-06-15T11:14:46.404Z,32.63
2019-06-15T11:17:14.885Z,32.73
2019-06-15T11:19:43.354Z,32.88
2019-06-15T11:22:11.784Z,32.71
2019-06-15T11:24:40.178Z,33.64
2019-06-15T11:27:08.592Z,32.88
2019-06-15T11:29:37.012Z,32.42
2019-06-15T11:32:05.420Z,32.79
2019-06-15T11:34:33.839Z,32.18
2019-06-15T11:37:03.888Z,33.40
2019-06-15T11:39:32.308Z,33.13
2019-06-15T11:42:00.715Z,33.20
2019-06-15T11:44:30.666Z,32.28
2019-06-15T11:46:59.056Z,32.68
2019-06-15T11:49:27.455Z,33.57
2019-06-15T11:51:55.901Z,33.16
2019-06-15T11:54:24.300Z,32.10
2019-06-15T11:56:52.689Z,32.33
2019-06-15T11:59:21.120Z,32.52
2019-06-15T12:01:49.578Z,31.55
2019-06-15T12:04:17.990Z,31.80
2019-06-15T12:06:46.554Z,33.45
2019-06-15T12:09:14.985Z,31.64
2019-06-15T12:11:43.430Z,31.83
2019-06-15T12:14:11.865Z,31.59
2019-06-15T12:16:40.262Z,31.79
2019-06-15T12:19:08.656Z,32.44
2019-06-15T12:21:37.086Z,32.11
2019-06-15T12:24:05.580Z,32.71
2019-06-15T12:26:34.037Z,33.10
2019-06-15T12:29:02.446Z,33.65
2019-06-15T12:31:30.850Z,34.03
2019-06-15T12:33:59.291Z,34.31
2019-06-15T12:36:27.731Z,33.80
2019-06-15T12:38:56.149Z,33.93
2019-06-15T12:41:24.550Z,33.26
2019-06-15T12:43:53.344Z,33.73
2019-06-15T12:46:21.740Z,34.28
2019-06-15T12:48:50.146Z,33.83
2019-06-15T12:51:18.573Z,33.84
2019-06-15T12:53:46.982Z,34.39
2019-06-15T12:56:15.421Z,34.96
2019-06-15T12:58:43.841Z,35.30
2019-06-15T13:01:12.237Z,36.40
2019-06-15T13:03:40.655Z,39.61
2019-06-15T13:06:09.068Z,38.92
2019-06-15T13:08:37.468Z,39.09
2019-06-15T13:11:05.872Z,37.95
2019-06-15T13:13:34.310Z,37.41
2019-06-15T13:16:02.702Z,36.67
2019-06-15T13:18:31.125Z,35.79
2019-06-15T13:20:59.575Z,35.03
2019-06-15T13:23:27.990Z,33.48
2019-06-15T13:25:56.389Z,33.94
2019-06-15T13:28:24.872Z,34.57
2019-06-15T13:30:53.273Z,34.67
2019-06-15T13:33:23.377Z,34.76
2019-06-15T13:35:51.770Z,34.45
2019-06-15T13:38:20.170Z,34.98
2019-06-15T13:40:48.564Z,34.84
2019-06-15T13:43:16.998Z,34.73
2019-06-15T13:45:45.764Z,35.17
2019-06-15T13:48:14.167Z,34.71
2019-06-15T13:50:42.594Z,35.09
2019-06-15T13:53:11.007Z,35.19
2019-06-15T13:55:39.478Z,35.92
2019-06-15T13:58:08.297Z,36.05
2019-06-15T14:00:36.762Z,35.92
2019-06-15T14:03:05.400Z,36.08
2019-06-15T14:05:33.833Z,36.08
2019-06-15T14:08:02.231Z,36.19
2019-06-15T14:10:30.630Z,36.14
2019-06-15T14:12:59.162Z,35.73
2019-06-15T14:15:27.563Z,36.52
2019-06-15T14:17:55.976Z,36.94
2019-06-15T14:20:24.450Z,37.13
2019-06-15T14:22:52.836Z,37.52
2019-06-15T14:25:21.232Z,37.16
2019-06-15T14:27:49.662Z,37.43
2019-06-15T14:30:18.311Z,37.19
2019-06-15T14:32:46.720Z,37.54
2019-06-15T14:35:15.320Z,38.02
2019-06-15T14:37:43.739Z,38.10
2019-06-15T14:40:12.663Z,37.69
2019-06-15T14:42:41.144Z,37.04
2019-06-15T14:45:10.775Z,37.09
2019-06-15T14:47:39.247Z,37.58
2019-06-15T14:50:08.741Z,37.14
2019-06-15T14:52:37.146Z,37.71
2019-06-15T14:55:07.324Z,37.46
2019-06-15T14:57:36.196Z,37.71
2019-06-15T15:00:08.920Z,37.53
2019-06-15T15:02:37.257Z,37.08
2019-06-15T15:05:08.317Z,37.48
2019-06-15T15:07:37.091Z,38.00
2019-06-15T15:10:08.668Z,38.17
2019-06-15T15:12:37.446Z,38.43
2019-06-15T15:15:09.484Z,38.53
2019-06-15T15:17:38.725Z,38.38
2019-06-15T15:20:08.191Z,39.04
2019-06-15T15:22:37.231Z,39.28
2019-06-15T15:25:06.706Z,39.22
2019-06-15T15:27:37.431Z,39.38
2019-06-15T15:30:13.404Z,39.43
2019-06-15T15:32:42.003Z,39.10
2019-06-15T15:35:10.558Z,38.94
2019-06-15T15:37:38.957Z,38.93
2019-06-15T15:40:07.948Z,38.68
2019-06-15T15:42:37.154Z,38.49
2019-06-15T15:45:07.544Z,38.64
2019-06-15T15:47:36.203Z,38.16
2019-06-15T15:50:06.915Z,38.38
2019-06-15T15:52:37.482Z,38.63
2019-06-15T15:55:07.225Z,38.47
2019-06-15T15:57:36.352Z,38.50
2019-06-15T16:00:07.465Z,38.34
2019-06-15T16:02:47.691Z,38.46
2019-06-15T16:05:07.750Z,38.68
2019-06-15T16:07:36.524Z,39.05
2019-06-15T16:10:06.894Z,38.93
2019-06-15T16:12:36.197Z,38.98
2019-06-15T16:15:07.626Z,38.98
2019-06-15T16:17:37.220Z,38.93
2019-06-15T16:20:08.921Z,38.88
2019-06-15T16:22:37.410Z,39.16
2019-06-15T16:25:06.803Z,39.26
2019-06-15T16:27:37.104Z,39.42
2019-06-15T16:30:09.509Z,39.46
2019-06-15T16:32:38.154Z,39.66
2019-06-15T16:35:08.229Z,39.77
2019-06-15T16:37:36.629Z,39.68
2019-06-15T16:40:09.021Z,39.81
2019-06-15T16:42:37.418Z,39.97
2019-06-15T16:45:06.780Z,40.12
2019-06-15T16:47:36.364Z,40.28
2019-06-15T16:50:07.000Z,40.44
2019-06-15T16:52:36.373Z,40.60
2019-06-15T16:55:10.947Z,40.63
2019-06-15T16:57:38.740Z,40.63
2019-06-15T17:00:19.135Z,40.57
2019-06-15T17:02:48.064Z,40.40
2019-06-15T17:05:17.198Z,40.27
2019-06-15T17:07:46.232Z,40.31
2019-06-15T17:10:16.910Z,40.43
2019-06-15T17:12:47.568Z,40.52
2019-06-15T17:15:16.994Z,40.60
2019-06-15T17:17:46.094Z,40.60
2019-06-15T17:20:16.270Z,40.53
2019-06-15T17:22:47.283Z,40.47
2019-06-15T17:25:16.567Z,40.61
2019-06-15T17:27:46.967Z,40.54
2019-06-15T17:30:17.232Z,40.58
2019-06-15T17:32:45.805Z,40.54
2019-06-15T17:35:16.763Z,39.57
2019-06-15T17:37:46.884Z,38.58
2019-06-15T17:40:16.249Z,37.63
2019-06-15T17:42:44.827Z,37.27
2019-06-15T17:45:15.998Z,37.68
2019-06-15T17:47:43.736Z,38.30
2019-06-15T17:50:12.197Z,38.82
2019-06-15T17:52:40.620Z,39.33
2019-06-15T17:55:09.093Z,39.83
2019-06-15T17:57:37.648Z,40.35
2019-06-15T18:00:09.641Z,40.76
2019-06-15T18:02:38.419Z,41.21
2019-06-15T18:05:07.329Z,41.25
2019-06-15T18:07:36.083Z,41.45
2019-06-15T18:10:36.238Z,41.60
2019-06-15T18:13:07.053Z,41.70
2019-06-15T18:15:36.306Z,41.80
2019-06-15T18:18:06.921Z,42.13
2019-06-15T18:20:36.422Z,42.11
2019-06-15T18:23:06.006Z,42.11
2019-06-15T18:25:37.053Z,42.39
2019-06-15T18:28:06.469Z,42.48
2019-06-15T18:30:37.135Z,42.76
2019-06-15T18:33:07.119Z,43.26
2019-06-15T18:35:36.115Z,43.62
2019-06-15T18:38:07.024Z,43.62
2019-06-15T18:40:37.094Z,43.43
2019-06-15T18:43:07.364Z,43.32
2019-06-15T18:45:36.227Z,43.27
2019-06-15T18:48:06.246Z,43.28
2019-06-15T18:50:37.807Z,43.43
2019-06-15T18:53:07.289Z,43.44
2019-06-15T18:55:36.381Z,43.33
2019-06-15T18:58:05.938Z,43.43
2019-06-15T19:00:36.863Z,43.57
2019-06-15T19:03:06.902Z,43.64
2019-06-15T19:05:37.254Z,44.23
2019-06-15T19:08:06.775Z,44.26
2019-06-15T19:10:36.708Z,44.54
2019-06-15T19:13:07.572Z,44.73
2019-06-15T19:15:37.258Z,44.75
2019-06-15T19:18:07.328Z,44.59
2019-06-15T19:20:37.256Z,44.58
2019-06-15T19:23:06.890Z,44.49
2019-06-15T19:25:36.570Z,44.52
2019-06-15T19:28:05.825Z,44.63
2019-06-15T19:30:37.106Z,44.68
2019-06-15T19:33:04.747Z,44.74
2019-06-15T19:35:33.250Z,44.76
2019-06-15T19:38:01.647Z,44.88
2019-06-15T19:40:30.038Z,45.25
2019-06-15T19:42:58.750Z,45.62
2019-06-15T19:45:27.288Z,45.84
2019-06-15T19:47:55.696Z,46.00
2019-06-15T19:50:26.811Z,46.00
2019-06-15T19:52:56.540Z,46.12
2019-06-15T19:55:26.888Z,46.12
2019-06-15T19:57:56.896Z,46.01
2019-06-15T20:00:27.087Z,46.27
2019-06-15T20:02:57.275Z,46.27
2019-06-15T20:05:28.596Z,46.18
2019-06-15T20:07:57.007Z,46.44
2019-06-15T20:10:26.597Z,46.67
2019-06-15T20:12:56.220Z,46.71
2019-06-15T20:15:26.297Z,46.88
2019-06-15T20:17:57.037Z,46.84
2019-06-15T20:20:26.647Z,46.84
2019-06-15T20:22:56.104Z,46.92
2019-06-15T20:25:26.712Z,46.97
2019-06-15T20:27:56.367Z,47.15
2019-06-15T20:30:24.936Z,47.27
2019-06-15T20:32:53.341Z,47.43
2019-06-15T20:35:21.913Z,47.59
2019-06-15T20:37:50.377Z,47.61
2019-06-15T20:40:19.052Z,47.63
2019-06-15T20:42:47.741Z,47.68
2019-06-15T20:45:16.690Z,47.66
2019-06-15T20:47:47.761Z,47.70
2019-06-15T20:50:27.334Z,47.75
2019-06-15T20:52:47.171Z,47.84
2019-06-15T20:55:16.328Z,47.93
2019-06-15T20:57:46.091Z,47.88
2019-06-15T21:00:16.727Z,47.90
2019-06-15T21:02:45.227Z,48.03
2019-06-15T21:05:32.637Z,48.42
2019-06-15T21:07:46.708Z,48.70
2019-06-15T21:10:16.086Z,48.59
2019-06-15T21:12:46.910Z,49.05
2019-06-15T21:15:15.250Z,49.33
2019-06-15T21:17:43.648Z,49.59
2019-06-15T21:20:16.105Z,49.86
2019-06-15T21:22:46.369Z,50.11
2019-06-15T21:25:17.369Z,50.10
2019-06-15T21:27:44.433Z,50.21
2019-06-15T21:30:16.381Z,50.38
2019-06-15T21:32:46.446Z,50.32
2019-06-15T21:35:14.229Z,50.64
2019-06-15T21:37:42.627Z,50.47
2019-06-15T21:40:11.484Z,50.62
2019-06-15T21:42:39.895Z,50.51
2019-06-15T21:45:08.640Z,50.67
2019-06-15T21:47:37.406Z,51.04
2019-06-15T21:50:11.013Z,50.98
2019-06-15T21:52:39.409Z,50.92
2019-06-15T21:55:08.140Z,50.95
2019-06-15T21:57:36.843Z,50.58
2019-06-15T22:00:11.868Z,50.03
2019-06-15T22:02:40.340Z,50.36
2019-06-15T22:05:09.092Z,51.06
2019-06-15T22:07:37.489Z,51.26
2019-06-15T22:10:08.052Z,51.17
2019-06-15T22:12:36.685Z,51.49
2019-06-15T22:15:07.356Z,51.90
2019-06-15T22:17:37.074Z,51.88
2019-06-15T22:20:09.921Z,51.85
2019-06-15T22:22:38.325Z,51.57
2019-06-15T22:25:07.848Z,51.59
2019-06-15T22:27:36.593Z,51.88
2019-06-15T22:30:08.485Z,51.82
2019-06-15T22:32:36.880Z,51.69
2019-06-15T22:35:08.176Z,51.72
2019-06-15T22:37:36.637Z,51.95
2019-06-15T22:40:07.692Z,52.15
2019-06-15T22:42:36.448Z,52.44
2019-06-15T22:45:08.944Z,52.91
2019-06-15T22:47:37.411Z,53.31
2019-06-15T22:50:08.082Z,51.72
2019-06-15T22:52:36.912Z,50.12
2019-06-15T22:55:08.656Z,50.69
2019-06-15T22:57:37.306Z,50.91
2019-06-15T23:00:07.756Z,51.37
2019-06-15T23:02:36.461Z,51.79
2019-06-15T23:05:06.623Z,52.17
2019-06-15T23:07:36.285Z,52.28
2019-06-15T23:10:08.259Z,52.83
2019-06-15T23:12:37.412Z,53.24
2019-06-15T23:15:07.734Z,53.69
2019-06-15T23:17:37.116Z,54.33
2019-06-15T23:20:09.776Z,54.50
2019-06-15T23:22:38.168Z,54.65
2019-06-15T23:25:06.708Z,54.82
2019-06-15T23:27:35.356Z,55.25
2019-06-15T23:30:06.890Z,55.63
2019-06-15T23:32:35.387Z,56.61
2019-06-15T23:35:08.605Z,58.14
2019-06-15T23:37:37.521Z,59.41
2019-06-15T23:40:19.166Z,60.76
2019-06-15T23:42:48.698Z,61.42
2019-06-15T23:45:20.978Z,62.22
2019-06-15T23:47:49.713Z,62.47
2019-06-15T23:50:19.550Z,63.03
2019-06-15T23:52:48.509Z,62.92
2019-06-15T23:55:17.883Z,62.85
2019-06-15T23:57:46.653Z,62.82
